Time;durP1;ratioP1;P1;durP2;ratioP2;P2;SDS_P1;SDS_P2;PMS_P1;PMS_P2;Temp;Humidity;BMP_temperature;BMP_pressure;BME280_temperature;BME280_humidity;BME280_pressure;Samples;Min_cycle;Max_cycle;Signal;HPM_P1;HPM_P2
2023/11/04 00:00:23;;;;;;;12.85;3.13;;;11.40;99.90;;;;;;4266773;27;20049;-57
2023/11/04 00:02:26;;;;;;;9.63;2.72;;;11.40;99.90;;;;;;4266220;27;20038;-57
2023/11/04 00:04:30;;;;;;;14.43;2.67;;;11.40;99.90;;;;;;4265967;27;20043;-56
2023/11/04 00:06:34;;;;;;;12.02;2.78;;;11.40;99.90;;;;;;4266060;27;20042;-56
2023/11/04 00:08:36;;;;;;;9.95;2.72;;;11.30;99.90;;;;;;4266389;27;20107;-56
2023/11/04 00:10:38;;;;;;;13.38;3.22;;;11.30;99.90;;;;;;4265976;27;20054;-56
2023/11/04 00:12:40;;;;;;;15.27;3.35;;;11.30;99.90;;;;;;4266144;27;20047;-57
2023/11/04 00:14:43;;;;;;;13.52;2.88;;;11.30;99.90;;;;;;4265907;27;20049;-57
2023/11/04 00:16:46;;;;;;;9.43;3.05;;;11.30;99.90;;;;;;4266152;27;20051;-56
2023/11/04 00:18:48;;;;;;;13.10;3.42;;;11.30;99.90;;;;;;4265360;27;20039;-56
2023/11/04 00:20:50;;;;;;;11.23;2.60;;;11.40;99.90;;;;;;4266076;27;20050;-57
2023/11/04 00:22:53;;;;;;;12.25;3.58;;;11.30;99.90;;;;;;4247739;27;20076;-55
2023/11/04 00:24:55;;;;;;;9.77;2.88;;;11.40;99.90;;;;;;4265738;27;20453;-56
2023/11/04 00:26:59;;;;;;;9.70;3.00;;;11.40;99.90;;;;;;4266164;27;20384;-57
2023/11/04 00:29:01;;;;;;;8.27;2.83;;;11.40;99.90;;;;;;4266216;27;20042;-62
2023/11/04 00:31:07;;;;;;;12.45;3.20;;;11.50;99.90;;;;;;4265261;27;20043;-56
2023/11/04 00:33:09;;;;;;;10.40;3.00;;;11.40;99.90;;;;;;4265163;27;20042;-56
2023/11/04 00:35:12;;;;;;;8.27;2.88;;;11.30;99.90;;;;;;4266167;27;20047;-56
2023/11/04 00:37:14;;;;;;;11.43;3.00;;;11.30;99.90;;;;;;4265943;27;20096;-57
2023/11/04 00:39:17;;;;;;;13.93;3.45;;;11.40;99.90;;;;;;4265663;27;20070;-57
2023/11/04 00:41:19;;;;;;;10.90;3.08;;;11.40;99.90;;;;;;4265827;27;20046;-57
2023/11/04 00:43:21;;;;;;;17.23;3.67;;;11.40;99.90;;;;;;4265222;27;20126;-56
2023/11/04 00:45:23;;;;;;;12.07;3.45;;;11.40;99.90;;;;;;4265743;27;20039;-57
2023/11/04 00:47:27;;;;;;;12.68;3.70;;;11.30;99.90;;;;;;4265005;27;20089;-56
2023/11/04 00:49:29;;;;;;;13.68;3.25;;;11.30;99.90;;;;;;4265850;27;20063;-57
2023/11/04 00:51:32;;;;;;;10.25;3.08;;;11.20;99.90;;;;;;4265433;27;20071;-56
2023/11/04 00:53:34;;;;;;;15.73;3.25;;;11.20;99.90;;;;;;4265253;27;20043;-62
2023/11/04 00:55:36;;;;;;;13.02;2.50;;;11.20;99.90;;;;;;4265598;27;20050;-56
2023/11/04 00:57:38;;;;;;;8.52;2.85;;;11.30;99.90;;;;;;4265653;27;20074;-56
2023/11/04 00:59:40;;;;;;;10.13;3.20;;;11.20;99.90;;;;;;4265227;27;20047;-56
2023/11/04 01:01:43;;;;;;;11.98;3.20;;;11.20;99.90;;;;;;4265564;27;20077;-57
2023/11/04 01:03:47;;;;;;;12.65;3.60;;;11.10;99.90;;;;;;4265269;27;20046;-56
2023/11/04 01:05:49;;;;;;;13.73;2.92;;;11.10;99.90;;;;;;4265422;27;20039;-57
2023/11/04 01:07:52;;;;;;;10.07;3.38;;;11.20;99.90;;;;;;4265290;27;20551;-57
2023/11/04 01:09:54;;;;;;;15.00;2.92;;;11.10;99.90;;;;;;4265536;27;20047;-56
2023/11/04 01:11:56;;;;;;;12.85;3.17;;;11.10;99.90;;;;;;4265044;27;20443;-57
2023/11/04 01:13:58;;;;;;;11.48;3.28;;;11.10;99.90;;;;;;4265116;27;20117;-57
2023/11/04 01:16:01;;;;;;;11.23;3.22;;;11.10;99.90;;;;;;4265124;27;20441;-56
2023/11/04 01:18:03;;;;;;;12.68;2.95;;;11.00;99.90;;;;;;4264864;27;20087;-57
2023/11/04 01:20:08;;;;;;;11.55;2.92;;;11.00;99.90;;;;;;4246869;28;20453;-56
2023/11/04 01:22:10;;;;;;;;;;;11.00;99.90;;;;;;4265864;27;20042;-56
2023/11/04 01:24:15;;;;;;;13.00;3.13;;;11.00;99.90;;;;;;4265340;27;19919;-56
2023/11/04 01:26:17;;;;;;;13.75;3.22;;;10.90;99.90;;;;;;4246906;28;20077;-59
2023/11/04 01:28:20;;;;;;;8.82;2.40;;;11.00;99.90;;;;;;4265075;27;20045;-57
2023/11/04 01:30:22;;;;;;;13.48;3.95;;;11.00;99.90;;;;;;4265457;27;20038;-57
2023/11/04 01:32:24;;;;;;;11.27;2.70;;;11.00;99.90;;;;;;4264740;27;20092;-56
2023/11/04 01:34:26;;;;;;;10.63;2.75;;;11.00;99.90;;;;;;4265437;27;20483;-56
2023/11/04 01:36:30;;;;;;;14.93;3.40;;;10.90;99.90;;;;;;4265224;27;20490;-57
2023/11/04 01:38:32;;;;;;;10.88;3.40;;;10.90;99.90;;;;;;4265372;27;20039;-56
2023/11/04 01:40:35;;;;;;;13.88;3.10;;;10.90;99.90;;;;;;4265126;27;20077;-60
2023/11/04 01:42:42;;;;;;;13.13;3.60;;;11.00;99.90;;;;;;4264992;27;20058;-57
2023/11/04 01:44:45;;;;;;;15.50;2.83;;;10.90;99.90;;;;;;4266281;27;20460;-56
2023/11/04 01:46:47;;;;;;;12.38;3.00;;;11.00;99.90;;;;;;4268352;27;20465;-55
2023/11/04 01:48:50;;;;;;;11.48;3.53;;;11.00;99.90;;;;;;4268012;27;20487;-56
2023/11/04 01:50:52;;;;;;;12.30;3.55;;;10.90;99.90;;;;;;4268481;27;20047;-57
2023/11/04 01:52:56;;;;;;;15.93;3.72;;;10.90;99.90;;;;;;4267922;27;20053;-57
2023/11/04 01:55:00;;;;;;;14.25;2.95;;;10.90;99.90;;;;;;4268478;27;20062;-56
2023/11/04 01:57:03;;;;;;;15.13;2.85;;;10.80;99.90;;;;;;4268426;27;20092;-57
2023/11/04 01:59:06;;;;;;;19.70;4.18;;;10.90;99.90;;;;;;4249918;27;20054;-57
2023/11/04 02:01:10;;;;;;;17.35;3.28;;;10.90;99.90;;;;;;4268862;27;20050;-59
2023/11/04 02:03:13;;;;;;;10.32;2.83;;;10.80;99.90;;;;;;4267633;27;20496;-55
2023/11/04 02:05:15;;;;;;;15.05;3.58;;;10.90;99.90;;;;;;4268675;27;20043;-57
2023/11/04 02:07:17;;;;;;;11.70;2.80;;;10.80;99.90;;;;;;4269327;27;20046;-55
2023/11/04 02:09:21;;;;;;;15.10;4.20;;;10.80;99.90;;;;;;4268211;27;20062;-57
2023/11/04 02:11:23;;;;;;;12.00;2.88;;;10.80;99.90;;;;;;4267885;27;20070;-58
2023/11/04 02:13:25;;;;;;;15.75;3.53;;;10.90;99.90;;;;;;4267895;27;20066;-56
2023/11/04 02:15:27;;;;;;;14.32;3.20;;;10.90;99.90;;;;;;4268348;27;20068;-60
2023/11/04 02:17:29;;;;;;;17.58;3.72;;;10.90;99.90;;;;;;4269447;27;20074;-57
2023/11/04 02:19:31;;;;;;;12.90;3.42;;;10.90;99.90;;;;;;4269088;27;20095;-57
2023/11/04 02:21:35;;;;;;;9.82;3.00;;;10.80;99.90;;;;;;4269554;27;20118;-56
2023/11/04 02:23:37;;;;;;;18.33;3.22;;;10.90;99.90;;;;;;4269567;27;20047;-56
2023/11/04 02:25:40;;;;;;;15.40;3.25;;;10.80;99.90;;;;;;4269255;27;20043;-56
2023/11/04 02:27:42;;;;;;;14.23;3.40;;;10.80;99.90;;;;;;4269576;27;20046;-57
2023/11/04 02:29:48;;;;;;;13.43;3.10;;;10.80;99.90;;;;;;4269405;27;20043;-62
2023/11/04 02:31:50;;;;;;;13.90;3.38;;;10.80;99.90;;;;;;4270426;27;20047;-56
2023/11/04 02:33:52;;;;;;;14.95;3.80;;;10.70;99.90;;;;;;4269738;27;20049;-60
2023/11/04 02:35:54;;;;;;;11.57;3.83;;;10.70;99.90;;;;;;4269337;27;20051;-58
2023/11/04 02:37:58;;;;;;;11.98;2.88;;;10.70;99.90;;;;;;4268180;27;20137;-57
2023/11/04 02:40:00;;;;;;;16.05;3.08;;;10.80;99.90;;;;;;4268364;27;20047;-56
2023/11/04 02:42:02;;;;;;;12.10;3.60;;;10.80;99.90;;;;;;4267053;27;20419;-56
2023/11/04 02:44:05;;;;;;;12.57;3.08;;;10.80;99.90;;;;;;4267198;27;20076;-57
2023/11/04 02:46:07;;;;;;;17.58;3.08;;;10.80;99.90;;;;;;4249117;27;20043;-57
2023/11/04 02:48:09;;;;;;;14.95;3.17;;;10.80;99.90;;;;;;4267106;27;20126;-56
2023/11/04 02:50:13;;;;;;;13.93;3.92;;;10.70;99.90;;;;;;4267120;27;20042;-57
2023/11/04 02:52:15;;;;;;;15.13;3.47;;;10.70;99.90;;;;;;4266986;27;20131;-57
2023/11/04 02:54:19;;;;;;;13.35;3.28;;;10.80;99.90;;;;;;4267221;27;20077;-56
2023/11/04 02:56:21;;;;;;;13.57;3.23;;;10.80;99.90;;;;;;4266687;27;20046;-59
2023/11/04 02:58:23;;;;;;;13.40;3.40;;;10.80;99.90;;;;;;4266973;27;20849;-56
2023/11/04 03:00:25;;;;;;;18.90;3.58;;;10.80;99.90;;;;;;4266925;27;20475;-57
2023/11/04 03:02:27;;;;;;;9.77;3.08;;;10.90;99.90;;;;;;4267020;27;20053;-57
2023/11/04 03:04:29;;;;;;;14.60;3.50;;;10.80;99.90;;;;;;4266995;27;20051;-56
2023/11/04 03:06:32;;;;;;;13.35;3.10;;;10.90;99.90;;;;;;4266810;27;20050;-58
2023/11/04 03:08:34;;;;;;;15.98;3.75;;;10.90;99.90;;;;;;4267218;27;20094;-57
2023/11/04 03:10:37;;;;;;;12.90;2.97;;;10.90;99.90;;;;;;4266965;27;20051;-57
2023/11/04 03:12:39;;;;;;;13.70;3.33;;;10.90;99.90;;;;;;4266797;27;20054;-57
2023/11/04 03:14:43;;;;;;;17.25;3.55;;;10.90;99.90;;;;;;4267211;27;20047;-58
2023/11/04 03:16:45;;;;;;;12.93;2.85;;;10.90;99.90;;;;;;4266977;27;20114;-57
2023/11/04 03:18:47;;;;;;;13.35;2.97;;;10.90;99.90;;;;;;4266950;27;20042;-57
2023/11/04 03:20:50;;;;;;;14.32;3.60;;;10.90;99.90;;;;;;4267413;27;20051;-56
2023/11/04 03:22:52;;;;;;;15.20;3.08;;;10.90;99.90;;;;;;4266625;27;20062;-58
2023/11/04 03:24:54;;;;;;;13.98;3.20;;;10.90;99.90;;;;;;4266678;27;20091;-56
2023/11/04 03:26:58;;;;;;;13.27;3.20;;;10.90;99.90;;;;;;4266058;27;20043;-56
2023/11/04 03:29:00;;;;;;;11.13;3.13;;;10.90;99.90;;;;;;4266556;27;20057;-57
2023/11/04 03:31:03;;;;;;;12.77;3.25;;;10.90;99.90;;;;;;4266461;27;20042;-57
2023/11/04 03:33:05;;;;;;;16.15;3.38;;;10.80;99.90;;;;;;4266406;27;20046;-57
2023/11/04 03:35:08;;;;;;;19.73;4.25;;;10.90;99.90;;;;;;4267283;27;20057;-56
2023/11/04 03:37:11;;;;;;;13.52;2.92;;;10.90;99.90;;;;;;4268233;27;20511;-61
2023/11/04 03:39:13;;;;;;;14.68;3.70;;;10.90;99.90;;;;;;4269494;27;20053;-61
2023/11/04 03:41:15;;;;;;;16.25;3.92;;;10.90;99.90;;;;;;4268884;27;20073;-57
2023/11/04 03:43:19;;;;;;;17.77;3.75;;;10.80;99.90;;;;;;4268289;27;20118;-56
2023/11/04 03:45:21;;;;;;;13.60;3.47;;;10.80;99.90;;;;;;4248902;27;20065;-56
2023/11/04 03:47:23;;;;;;;12.90;3.50;;;10.80;99.90;;;;;;4266835;27;20047;-56
2023/11/04 03:49:25;;;;;;;17.20;3.22;;;10.80;99.90;;;;;;4267159;27;20050;-56
2023/11/04 03:51:29;;;;;;;24.48;4.43;;;10.80;99.90;;;;;;4267008;27;20042;-55
2023/11/04 03:53:31;;;;;;;21.70;3.97;;;10.80;99.90;;;;;;4248603;27;20042;-58
2023/11/04 03:55:33;;;;;;;12.27;3.60;;;10.70;99.90;;;;;;4248493;27;20043;-60
2023/11/04 03:57:35;;;;;;;20.65;3.60;;;10.70;99.90;;;;;;4266216;27;20046;-57
2023/11/04 03:59:39;;;;;;;15.93;3.92;;;10.70;99.90;;;;;;4266497;27;20054;-57
2023/11/04 04:01:41;;;;;;;23.42;4.13;;;10.70;99.90;;;;;;4266295;27;20129;-56
2023/11/04 04:03:43;;;;;;;16.83;3.35;;;10.70;99.90;;;;;;4266294;27;20078;-57
2023/11/04 04:05:46;;;;;;;20.58;4.10;;;10.70;99.90;;;;;;4248078;27;20050;-57
2023/11/04 04:07:49;;;;;;;17.05;3.53;;;10.70;99.90;;;;;;4266059;27;20110;-57
2023/11/04 04:09:51;;;;;;;17.83;4.05;;;10.70;99.90;;;;;;4269135;27;20421;-57
2023/11/04 04:11:53;;;;;;;16.63;3.30;;;10.80;99.90;;;;;;4267100;27;20038;-56
2023/11/04 04:13:58;;;;;;;17.73;4.20;;;10.80;99.90;;;;;;4266977;27;20042;-56
2023/11/04 04:16:08;;;;;;;16.55;3.55;;;10.80;99.90;;;;;;4265960;27;20049;-57
2023/11/04 04:18:10;;;;;;;16.58;3.42;;;10.80;99.90;;;;;;4273319;27;20049;-56
2023/11/04 04:20:13;;;;;;;18.33;3.92;;;10.90;99.90;;;;;;4282978;27;20046;-57
2023/11/04 04:22:15;;;;;;;16.13;3.30;;;10.90;99.90;;;;;;4282985;27;20510;-57
2023/11/04 04:24:17;;;;;;;15.93;3.50;;;10.90;99.90;;;;;;4283053;27;20053;-57
2023/11/04 04:26:20;;;;;;;16.35;4.35;;;10.90;99.90;;;;;;4282519;27;20046;-56
2023/11/04 04:28:22;;;;;;;16.17;3.60;;;10.90;99.90;;;;;;4264738;27;20050;-55
2023/11/04 04:30:24;;;;;;;17.33;3.70;;;11.00;99.90;;;;;;4282793;27;20045;-57
2023/11/04 04:32:28;;;;;;;17.73;4.18;;;11.00;99.90;;;;;;4282990;27;20046;-56
2023/11/04 04:34:30;;;;;;;14.63;4.00;;;11.00;99.90;;;;;;4282777;27;20038;-57
2023/11/04 04:36:32;;;;;;;13.32;3.40;;;11.00;99.90;;;;;;4282937;27;20073;-57
2023/11/04 04:38:35;;;;;;;14.48;3.22;;;11.00;99.90;;;;;;4282638;27;20121;-57
2023/11/04 04:40:37;;;;;;;16.83;3.80;;;11.00;99.90;;;;;;4282288;27;20053;-56
2023/11/04 04:42:40;;;;;;;18.92;3.85;;;11.00;99.90;;;;;;4282343;27;20050;-56
2023/11/04 04:44:42;;;;;;;15.10;4.10;;;11.10;99.90;;;;;;4282768;27;20084;-56
2023/11/04 04:46:44;;;;;;;18.10;4.30;;;11.10;99.90;;;;;;4282468;27;20042;-56
2023/11/04 04:48:48;;;;;;;19.15;4.13;;;11.00;99.90;;;;;;4282867;27;20046;-56
2023/11/04 04:50:50;;;;;;;19.42;4.25;;;11.10;99.90;;;;;;4282764;27;20147;-57
2023/11/04 04:52:52;;;;;;;21.80;3.97;;;11.10;99.90;;;;;;4283141;27;20073;-56
2023/11/04 04:54:54;;;;;;;18.20;3.85;;;11.10;99.90;;;;;;4264511;27;20057;-58
2023/11/04 04:56:58;;;;;;;15.32;3.78;;;11.10;99.90;;;;;;4264296;27;20076;-57
2023/11/04 04:59:00;;;;;;;19.55;3.88;;;11.10;99.90;;;;;;4282760;27;20071;-56
2023/11/04 05:01:03;;;;;;;17.17;3.00;;;11.00;99.90;;;;;;4282418;27;20046;-57
2023/11/04 05:03:05;;;;;;;15.30;4.20;;;11.00;99.90;;;;;;4282613;27;20088;-57
2023/11/04 05:05:12;;;;;;;18.88;3.65;;;11.00;99.90;;;;;;4264073;27;20075;-56
2023/11/04 05:07:14;;;;;;;18.40;3.92;;;11.00;99.90;;;;;;4282481;27;20053;-57
2023/11/04 05:09:17;;;;;;;18.15;3.65;;;10.90;99.90;;;;;;4282375;27;20121;-56
2023/11/04 05:11:20;;;;;;;22.38;4.22;;;11.00;99.90;;;;;;4282319;27;20050;-56
2023/11/04 05:13:22;;;;;;;18.75;3.28;;;11.00;99.90;;;;;;4282606;27;20050;-57
2023/11/04 05:15:24;;;;;;;20.38;4.50;;;11.20;99.90;;;;;;4282560;27;20121;-57
2023/11/04 05:17:26;;;;;;;17.88;4.00;;;11.10;99.90;;;;;;4282335;27;20087;-56
2023/11/04 05:19:28;;;;;;;18.67;3.60;;;11.00;99.90;;;;;;4285316;27;20042;-56
2023/11/04 05:21:32;;;;;;;22.08;3.90;;;11.00;99.90;;;;;;4285669;27;20042;-58
2023/11/04 05:23:34;;;;;;;20.98;4.07;;;11.10;99.90;;;;;;4285686;27;20049;-57
2023/11/04 05:25:36;;;;;;;15.80;3.67;;;11.10;99.90;;;;;;4285558;27;20060;-56
2023/11/04 05:27:39;;;;;;;19.02;4.10;;;11.10;99.90;;;;;;4285991;27;20042;-56
2023/11/04 05:29:42;;;;;;;25.33;4.43;;;11.00;99.90;;;;;;4285763;27;20046;-56
2023/11/04 05:31:46;;;;;;;16.35;3.63;;;11.10;99.90;;;;;;4285793;27;20043;-57
2023/11/04 05:33:49;;;;;;;20.55;3.83;;;11.10;99.90;;;;;;4285542;27;20053;-56
2023/11/04 05:35:51;;;;;;;17.20;3.28;;;11.00;99.90;;;;;;4285690;27;20042;-57
2023/11/04 05:37:55;;;;;;;16.92;3.40;;;11.00;99.90;;;;;;4285221;27;20071;-56
2023/11/04 05:39:57;;;;;;;8.00;2.03;;;11.00;99.90;;;;;;4267029;27;20070;-57
2023/11/04 05:41:59;;;;;;;19.75;4.28;;;11.00;99.90;;;;;;4285318;27;20051;-55
2023/11/04 05:44:01;;;;;;;13.75;3.28;;;10.90;99.90;;;;;;4285665;27;20498;-56
2023/11/04 05:46:06;;;;;;;14.20;3.55;;;10.90;99.90;;;;;;4285378;27;20116;-57
2023/11/04 05:48:08;;;;;;;19.23;3.28;;;10.90;99.90;;;;;;4285695;27;20046;-57
2023/11/04 05:50:10;;;;;;;15.15;3.58;;;10.80;99.90;;;;;;4267126;27;20043;-56
2023/11/04 05:52:12;;;;;;;14.93;3.80;;;10.90;99.90;;;;;;4288151;27;20130;-60
2023/11/04 05:54:16;;;;;;;19.40;3.70;;;10.90;99.90;;;;;;4290296;27;20072;-57
2023/11/04 05:56:19;;;;;;;12.32;2.45;;;10.90;99.90;;;;;;4288749;27;20121;-56
2023/11/04 05:58:21;;;;;;;14.57;2.72;;;10.80;99.90;;;;;;4288034;27;20042;-57
2023/11/04 06:00:23;;;;;;;15.68;2.80;;;10.80;99.90;;;;;;4286655;27;20098;-56
2023/11/04 06:02:25;;;;;;;19.15;3.38;;;10.90;99.90;;;;;;4285505;27;20493;-56
2023/11/04 06:04:27;;;;;;;15.88;3.22;;;10.80;99.90;;;;;;4285247;27;20050;-57
2023/11/04 06:06:29;;;;;;;12.45;3.10;;;10.90;99.90;;;;;;4285037;27;20121;-57
2023/11/04 06:08:35;;;;;;;17.52;3.53;;;10.90;99.90;;;;;;4284933;27;20049;-56
2023/11/04 06:10:40;;;;;;;20.00;2.90;;;10.80;99.90;;;;;;4266296;27;20443;-56
2023/11/04 06:12:42;;;;;;;19.27;3.75;;;10.80;99.90;;;;;;4285097;27;20038;-56
2023/11/04 06:14:45;;;;;;;17.08;3.35;;;10.80;99.90;;;;;;4284925;27;20038;-61
2023/11/04 06:16:47;;;;;;;14.80;3.35;;;10.80;99.90;;;;;;4285108;27;20119;-57
2023/11/04 06:18:49;;;;;;;11.13;2.88;;;10.80;99.90;;;;;;4284776;27;20094;-57
2023/11/04 06:20:52;;;;;;;10.75;2.65;;;10.80;99.90;;;;;;4284730;27;20054;-57
2023/11/04 06:22:54;;;;;;;11.65;2.80;;;10.70;99.90;;;;;;4284677;27;20073;-55
2023/11/04 06:24:56;;;;;;;15.27;3.40;;;10.80;99.90;;;;;;4284707;27;20077;-57
2023/11/04 06:27:00;;;;;;;15.45;3.08;;;10.80;99.90;;;;;;4284810;27;20042;-57
2023/11/04 06:29:02;;;;;;;16.50;3.72;;;10.80;99.90;;;;;;4284752;27;20046;-57
2023/11/04 06:31:09;;;;;;;14.95;3.00;;;10.70;99.90;;;;;;4286246;27;20042;-57
2023/11/04 06:33:12;;;;;;;14.32;3.25;;;10.70;99.90;;;;;;4287033;27;20468;-60
2023/11/04 06:35:14;;;;;;;14.98;2.50;;;10.70;99.90;;;;;;4287500;27;20053;-55
2023/11/04 06:37:16;;;;;;;12.30;2.88;;;10.70;99.90;;;;;;4287986;27;20541;-65
2023/11/04 06:39:18;;;;;;;11.68;2.88;;;10.70;99.90;;;;;;4287946;27;20045;-54
2023/11/04 06:41:20;;;;;;;14.82;3.03;;;10.70;99.90;;;;;;4287620;27;20042;-58
2023/11/04 06:43:25;;;;;;;10.43;2.90;;;10.60;99.90;;;;;;4268975;27;20107;-54
2023/11/04 06:45:28;;;;;;;;;;;10.70;99.90;;;;;;4287084;27;20046;-57
2023/11/04 06:47:30;;;;;;;8.95;2.78;;;10.60;99.90;;;;;;4287135;27;19971;-58
2023/11/04 06:49:32;;;;;;;14.95;2.42;;;10.60;99.90;;;;;;4287695;27;20121;-54
2023/11/04 06:51:34;;;;;;;14.15;3.40;;;10.70;99.90;;;;;;4287395;27;20048;-56
2023/11/04 06:53:36;;;;;;;11.93;2.80;;;10.70;99.90;;;;;;4287935;27;20046;-55
2023/11/04 06:55:38;;;;;;;13.07;3.00;;;10.70;99.90;;;;;;4287527;27;20054;-63
2023/11/04 06:57:41;;;;;;;10.23;2.40;;;10.70;99.90;;;;;;4288547;27;20095;-55
2023/11/04 06:59:44;;;;;;;8.73;3.10;;;10.70;99.90;;;;;;4267370;27;20043;-57
2023/11/04 07:01:50;;;;;;;12.90;2.97;;;10.70;99.90;;;;;;4284752;27;20046;-55
2023/11/04 07:03:52;;;;;;;11.63;2.70;;;10.80;99.90;;;;;;4284963;27;20046;-53
2023/11/04 07:05:54;;;;;;;12.15;3.20;;;10.70;99.90;;;;;;4266141;27;20051;-55
2023/11/04 07:07:58;;;;;;;11.45;2.60;;;10.60;99.90;;;;;;4284207;27;20049;-58
2023/11/04 07:10:00;;;;;;;12.32;3.08;;;10.60;99.90;;;;;;4265820;27;20133;-54
2023/11/04 07:12:02;;;;;;;11.68;2.90;;;10.50;99.90;;;;;;4284165;27;20121;-53
2023/11/04 07:14:05;;;;;;;14.40;2.72;;;10.60;99.90;;;;;;4265440;27;20046;-55
2023/11/04 07:16:09;;;;;;;8.65;2.30;;;10.60;99.90;;;;;;4284136;27;20065;-54
2023/11/04 07:18:12;;;;;;;12.65;2.75;;;10.60;99.90;;;;;;4284206;27;20042;-53
2023/11/04 07:20:14;;;;;;;13.82;2.55;;;10.60;99.90;;;;;;4283605;27;20042;-54
2023/11/04 07:22:17;;;;;;;12.07;2.97;;;10.50;99.90;;;;;;4283894;27;20406;-55
2023/11/04 07:24:20;;;;;;;10.95;2.35;;;10.60;99.90;;;;;;4283984;27;20046;-55
2023/11/04 07:26:22;;;;;;;11.35;2.95;;;10.60;99.90;;;;;;4283692;27;20070;-54
2023/11/04 07:28:24;;;;;;;8.25;2.38;;;10.50;99.90;;;;;;4283642;27;20046;-53
2023/11/04 07:30:26;;;;;;;13.80;2.83;;;10.50;99.90;;;;;;4283704;27;20088;-54
2023/11/04 07:32:29;;;;;;;9.80;2.15;;;10.60;99.90;;;;;;4265266;27;20050;-55
2023/11/04 07:34:33;;;;;;;7.88;2.05;;;10.70;99.90;;;;;;4283143;27;20400;-54
2023/11/04 07:36:35;;;;;;;5.93;1.52;;;10.70;99.90;;;;;;4283631;27;20058;-57
2023/11/04 07:38:37;;;;;;;11.30;2.40;;;10.60;99.90;;;;;;4283340;27;20077;-57
2023/11/04 07:40:42;;;;;;;8.43;1.77;;;10.60;99.90;;;;;;4283467;27;20073;-55
2023/11/04 07:42:44;;;;;;;7.80;2.10;;;10.60;99.90;;;;;;4283604;27;20129;-55
2023/11/04 07:44:46;;;;;;;9.32;2.22;;;10.60;99.90;;;;;;4283820;27;20403;-59
2023/11/04 07:46:48;;;;;;;7.57;1.48;;;10.60;99.90;;;;;;4283701;27;20042;-54
2023/11/04 07:48:52;;;;;;;7.75;1.73;;;10.70;99.90;;;;;;4283278;27;20038;-54
2023/11/04 07:50:54;;;;;;;9.13;1.73;;;10.60;99.90;;;;;;4283415;27;20117;-54
2023/11/04 07:52:56;;;;;;;8.25;1.80;;;10.50;99.90;;;;;;4283345;27;20471;-54
2023/11/04 07:55:00;;;;;;;8.93;2.28;;;10.50;99.90;;;;;;4283298;27;20053;-54
2023/11/04 07:57:02;;;;;;;6.97;1.85;;;10.60;99.90;;;;;;4283308;27;20050;-56
2023/11/04 07:59:05;;;;;;;5.45;1.38;;;10.60;99.90;;;;;;4264906;27;20130;-53
2023/11/04 08:01:07;;;;;;;4.53;1.65;;;10.50;99.90;;;;;;4283035;27;20065;-53
2023/11/04 08:03:09;;;;;;;5.20;1.50;;;10.50;99.90;;;;;;4282630;27;20094;-54
2023/11/04 08:05:14;;;;;;;4.22;1.30;;;10.50;99.90;;;;;;4283402;27;20050;-54
2023/11/04 08:07:16;;;;;;;6.13;1.60;;;10.60;99.90;;;;;;4283335;27;20046;-54
2023/11/04 08:09:18;;;;;;;6.55;1.55;;;10.50;99.90;;;;;;4283066;27;20465;-54
2023/11/04 08:11:22;;;;;;;4.45;1.10;;;10.50;99.90;;;;;;4282944;27;20045;-54
2023/11/04 08:13:24;;;;;;;5.78;1.35;;;10.50;99.90;;;;;;4282797;27;20094;-53
2023/11/04 08:15:27;;;;;;;5.30;1.35;;;10.60;99.90;;;;;;4283051;27;20050;-54
2023/11/04 08:17:29;;;;;;;5.47;1.20;;;10.60;99.90;;;;;;4282495;27;20044;-55
2023/11/04 08:19:31;;;;;;;6.05;1.27;;;10.60;99.90;;;;;;4283045;27;20050;-54
2023/11/04 08:21:34;;;;;;;2.72;1.13;;;10.60;99.90;;;;;;4282977;27;20422;-53
2023/11/04 08:23:37;;;;;;;4.35;1.00;;;10.60;99.90;;;;;;4283185;27;20043;-54
2023/11/04 08:25:39;;;;;;;5.95;1.48;;;10.50;99.90;;;;;;4283409;27;20077;-57
2023/11/04 08:27:41;;;;;;;2.88;1.00;;;10.50;99.90;;;;;;4282851;27;20042;-57
2023/11/04 08:29:43;;;;;;;6.65;1.10;;;10.50;99.90;;;;;;4283113;27;20057;-54
2023/11/04 08:31:45;;;;;;;4.28;1.17;;;10.50;99.90;;;;;;4282462;27;20083;-54
2023/11/04 08:33:48;;;;;;;4.22;1.00;;;10.60;99.90;;;;;;4282554;27;20054;-57
2023/11/04 08:35:51;;;;;;;3.72;0.90;;;10.50;99.90;;;;;;4282564;27;20042;-57
2023/11/04 08:37:54;;;;;;;4.53;1.23;;;10.50;99.90;;;;;;4264309;27;20043;-56
2023/11/04 08:39:56;;;;;;;3.58;1.02;;;10.60;99.90;;;;;;4282308;27;20045;-56
2023/11/04 08:41:59;;;;;;;4.18;1.00;;;10.60;99.90;;;;;;4282413;27;20058;-56
2023/11/04 08:44:02;;;;;;;5.57;1.20;;;10.70;99.90;;;;;;4282596;27;20479;-57
2023/11/04 08:46:04;;;;;;;5.00;1.60;;;10.60;99.90;;;;;;4282186;27;20066;-56
2023/11/04 08:48:06;;;;;;;4.78;1.35;;;10.70;99.90;;;;;;4282400;27;20046;-57
2023/11/04 08:50:09;;;;;;;1.60;0.77;;;10.70;99.90;;;;;;4282580;27;20046;-57
2023/11/04 08:52:11;;;;;;;4.07;1.15;;;10.70;99.90;;;;;;4282627;27;20540;-58
2023/11/04 08:54:15;;;;;;;5.63;0.80;;;10.70;99.90;;;;;;4282131;27;20110;-56
2023/11/04 08:56:17;;;;;;;2.17;0.70;;;10.70;99.90;;;;;;4282532;27;20128;-57
2023/11/04 08:58:19;;;;;;;2.38;0.90;;;10.70;99.90;;;;;;4282621;27;20042;-57
2023/11/04 09:00:21;;;;;;;2.90;0.90;;;10.80;99.90;;;;;;4282406;27;20053;-57
2023/11/04 09:02:23;;;;;;;2.53;0.88;;;10.80;99.90;;;;;;4282060;27;20046;-56
2023/11/04 09:04:25;;;;;;;4.90;0.70;;;10.80;99.90;;;;;;4282657;27;20062;-56
2023/11/04 09:06:30;;;;;;;3.65;0.90;;;10.80;99.90;;;;;;4282423;27;20042;-57
2023/11/04 09:08:32;;;;;;;6.85;1.10;;;10.80;99.90;;;;;;4282168;27;20050;-56
2023/11/04 09:10:35;;;;;;;2.20;0.82;;;10.80;99.90;;;;;;4282223;27;20223;-56
2023/11/04 09:12:38;;;;;;;3.30;0.70;;;10.90;99.90;;;;;;4282369;27;20078;-57
2023/11/04 09:14:40;;;;;;;2.65;0.77;;;10.90;99.90;;;;;;4282134;27;20106;-57
2023/11/04 09:16:42;;;;;;;1.52;0.60;;;10.90;99.90;;;;;;4282115;27;20115;-56
2023/11/04 09:18:44;;;;;;;1.48;0.60;;;11.00;99.90;;;;;;4282278;27;20054;-56
2023/11/04 09:20:47;;;;;;;3.28;1.38;;;11.00;99.90;;;;;;4282147;27;20433;-56
2023/11/04 09:22:49;;;;;;;2.15;0.60;;;11.10;99.90;;;;;;4282868;27;20132;-56
2023/11/04 09:24:52;;;;;;;3.92;0.82;;;11.10;99.90;;;;;;4282748;27;20046;-57
2023/11/04 09:26:56;;;;;;;1.55;0.80;;;11.10;99.90;;;;;;4283023;27;20050;-56
2023/11/04 09:28:58;;;;;;;1.23;0.40;;;11.10;99.90;;;;;;4282405;27;20046;-59
2023/11/04 09:31:01;;;;;;;1.67;0.90;;;11.10;99.90;;;;;;4281690;27;20500;-57
2023/11/04 09:33:03;;;;;;;1.08;0.60;;;11.20;99.90;;;;;;4282224;27;20046;-57
2023/11/04 09:35:06;;;;;;;1.85;0.85;;;11.20;99.90;;;;;;4282024;27;20089;-57
2023/11/04 09:37:08;;;;;;;1.88;0.90;;;11.20;99.90;;;;;;4282032;27;20030;-54
2023/11/04 09:39:12;;;;;;;2.90;0.98;;;11.20;99.90;;;;;;4282034;27;20085;-53
2023/11/04 09:41:15;;;;;;;0.88;0.52;;;11.30;99.90;;;;;;4282012;27;20395;-53
2023/11/04 09:43:19;;;;;;;0.98;0.60;;;11.20;99.90;;;;;;4282180;27;20050;-54
2023/11/04 09:45:24;;;;;;;1.55;0.70;;;11.20;99.90;;;;;;4281843;27;20129;-54
2023/11/04 09:47:28;;;;;;;1.40;0.77;;;11.30;99.90;;;;;;4282263;27;20046;-53
2023/11/04 09:49:31;;;;;;;0.95;0.60;;;11.40;99.90;;;;;;4282100;27;20486;-56
2023/11/04 09:51:33;;;;;;;3.83;0.68;;;11.30;99.90;;;;;;4282243;27;20102;-57
2023/11/04 09:53:38;;;;;;;2.13;0.70;;;11.40;99.90;;;;;;4281998;27;20053;-56
2023/11/04 09:55:41;;;;;;;2.17;0.80;;;11.40;99.90;;;;;;4282097;27;20050;-57
2023/11/04 09:57:43;;;;;;;2.15;0.63;;;11.50;99.90;;;;;;4282060;27;20046;-57
2023/11/04 09:59:47;;;;;;;1.17;0.60;;;11.60;99.90;;;;;;4263186;27;20050;-56
2023/11/04 10:01:49;;;;;;;1.35;0.50;;;11.70;99.90;;;;;;4282295;27;20042;-56
2023/11/04 10:03:51;;;;;;;1.95;0.80;;;12.30;99.90;;;;;;4282268;27;20049;-55
2023/11/04 10:05:54;;;;;;;1.27;0.63;;;12.50;99.90;;;;;;4283731;27;20039;-56
2023/11/04 10:07:56;;;;;;;1.02;0.63;;;12.60;99.90;;;;;;4285304;27;20422;-56
2023/11/04 10:09:58;;;;;;;1.52;0.68;;;12.80;99.90;;;;;;4284701;27;20062;-58
2023/11/04 10:12:01;;;;;;;2.80;0.60;;;12.90;99.90;;;;;;4285306;27;20471;-56
2023/11/04 10:14:04;;;;;;;1.77;0.80;;;13.00;99.90;;;;;;4273928;27;20449;-56
2023/11/04 10:16:08;;;;;;;2.47;0.68;;;13.20;99.90;;;;;;4258187;27;20043;-53
2023/11/04 10:18:11;;;;;;;1.85;0.60;;;13.10;99.90;;;;;;4267062;27;20035;-54
2023/11/04 10:20:15;;;;;;;3.75;0.65;;;13.20;99.90;;;;;;4258619;27;20097;-56
2023/11/04 10:22:17;;;;;;;3.70;0.80;;;13.30;99.90;;;;;;4267230;27;20125;-54
2023/11/04 10:24:19;;;;;;;2.92;0.95;;;13.40;99.90;;;;;;4267799;27;20046;-54
2023/11/04 10:26:27;;;;;;;4.88;1.17;;;13.30;99.90;;;;;;4266993;27;20103;-53
2023/11/04 10:28:30;;;;;;;3.00;0.90;;;13.40;99.90;;;;;;4265395;27;20820;-54
2023/11/04 10:30:32;;;;;;;5.28;1.35;;;13.50;99.90;;;;;;4265863;27;20402;-54
2023/11/04 10:32:38;;;;;;;5.63;1.10;;;13.60;99.90;;;;;;4267478;27;20046;-56